Time,TemperatureF,DewpointF,PressureIn,WindDirection,WindDirectionDegrees,WindSpeedMPH,WindSpeedGustMPH,Humidity,HourlyPrecipIn,Conditions,Clouds,dailyrainin,SoftwareType,DateUTC
2013-01-01 00:00:00,35.9,27.4,29.91,WSW,250,8.0,12.0,71,0.00,RA,,0.00,WeatherDisplay:10.37,2013-01-01 05:00:00,
2013-01-01 00:02:00,36.0,27.8,29.90,West,260,2.2,3.5,72,0.00,RA,,0.00,WeatherDisplay:10.37,2013-01-01 05:02:00,
2013-01-01 00:03:00,35.9,27.7,29.90,West,262,5.3,8.1,72,0.00,RA,,0.00,WeatherDisplay:10.37,2013-01-01 05:03:00,
2013-01-01 00:08:00,35.9,27.7,29.90,West,270,3.8,6.9,72,0.00,RA,,0.00,WeatherDisplay:10.37,2013-01-01 05:08:00,
2013-01-01 00:13:00,35.9,27.7,29.89,West,267,7.4,9.2,72,0.00,CLR,,0.00,WeatherDisplay:10.37,2013-01-01 05:13:00,
2013-01-01 00:18:00,35.9,27.7,29.89,SW,221,5.2,9.2,72,0.00,CLR,,0.00,WeatherDisplay:10.37,2013-01-01 05:18:00,
2013-01-01 00:23:00,35.9,27.7,29.89,West,264,5.3,10.4,72,0.00,CLR,,0.00,WeatherDisplay:10.37,2013-01-01 05:23:00,
2013-01-01 00:28:00,35.9,28.1,29.89,SW,222,4.2,5.8,73,0.00,CLR,,0.00,WeatherDisplay:10.37,2013-01-01 05:28:00,
2013-01-01 00:33:00,35.9,28.1,29.89,West,269,7.7,13.8,73,0.00,CLR,,0.00,WeatherDisplay:10.37,2013-01-01 05:33:00,
2013-01-01 00:38:00,36.1,28.3,29.89,WSW,238,7.7,11.5,73,0.00,CLR,,0.00,WeatherDisplay:10.37,2013-01-01 05:38:00,
2013-01-01 00:43:00,36.1,28.3,29.90,West,259,6.9,12.7,73,0.00,CLR,,0.00,WeatherDisplay:10.37,2013-01-01 05:43:00,
2013-01-01 00:48:00,36.2,28.4,29.89,West,266,7.0,11.5,73,0.00,CLR,,0.00,WeatherDisplay:10.37,2013-01-01 05:48:00,
2013-01-01 00:53:00,36.2,28.4,29.89,West,270,5.0,5.8,73,0.00,CLR,,0.00,WeatherDisplay:10.37,2013-01-01 05:53:00,
2013-01-01 00:58:00,36.3,28.8,29.89,WSW,250,6.0,8.1,74,0.00,CLR,,0.00,WeatherDisplay:10.37,2013-01-01 05:58:00,
2013-01-01 01:03:00,36.2,28.7,29.89,SW,234,6.5,10.4,74,0.00,CLR,,0.00,WeatherDisplay:10.37,2013-01-01 06:03:00,
2013-01-01 01:08:00,36.2,28.7,29.89,SW,236,7.4,10.4,74,0.00,CLR,,0.00,WeatherDisplay:10.37,2013-01-01 06:08:00,
2013-01-01 01:13:00,36.2,29.0,29.89,WSW,256,2.3,3.5,75,0.00,CLR,,0.00,WeatherDisplay:10.37,2013-01-01 06:13:00,
2013-01-01 01:18:00,36.1,28.9,29.89,West,261,6.9,9.2,75,0.00,CLR,,0.00,WeatherDisplay:10.37,2013-01-01 06:18:00,
2013-01-01 01:23:00,36.1,28.9,29.89,WSW,244,5.4,6.9,75,0.00,CLR,,0.00,WeatherDisplay:10.37,2013-01-01 06:23:00,
2013-01-01 01:28:00,36.2,29.0,29.89,West,277,5.6,5.8,75,0.00,CLR,,0.00,WeatherDisplay:10.37,2013-01-01 06:28:00,
2013-01-01 01:33:00,36.3,29.5,29.89,SW,231,2.6,4.6,76,0.00,CLR,,0.00,WeatherDisplay:10.37,2013-01-01 06:33:00,
2013-01-01 01:38:00,36.3,29.5,29.89,West,268,2.9,5.8,76,0.00,CLR,,0.00,WeatherDisplay:10.37,2013-01-01 06:38:00,
2013-01-01 01:43:00,36.3,29.5,29.88,West,260,4.4,6.9,76,0.00,CLR,,0.00,WeatherDisplay:10.37,2013-01-01 06:43:00,
2013-01-01 01:48:00,36.4,29.6,29.88,West,267,5.3,8.1,76,0.00,CLR,,0.00,WeatherDisplay:10.37,2013-01-01 06:48:00,
2013-01-01 01:53:00,36.5,29.7,29.88,WSW,251,4.3,5.8,76,0.00,CLR,,0.00,WeatherDisplay:10.37,2013-01-01 06:53:00,
2013-01-01 01:58:00,36.5,29.7,29.88,SW,234,3.7,4.6,76,0.00,CLR,,0.00,WeatherDisplay:10.37,2013-01-01 06:58:00,
2013-01-01 02:03:00,36.5,30.0,29.88,West,259,3.4,5.8,77,0.00,CLR,,0.00,WeatherDisplay:10.37,2013-01-01 07:03:00,
2013-01-01 02:08:00,36.5,29.7,29.89,SW,222,2.1,3.5,76,0.00,CLR,,0.00,WeatherDisplay:10.37,2013-01-01 07:08:00,
2013-01-01 02:13:00,36.4,29.9,29.89,South,190,2.8,3.5,77,0.00,CLR,,0.00,WeatherDisplay:10.37,2013-01-01 07:13:00,
2013-01-01 02:18:00,36.4,29.9,29.89,West,268,3.8,4.6,77,0.00,CLR,,0.00,WeatherDisplay:10.37,2013-01-01 07:18:00,
2013-01-01 02:23:00,36.5,30.0,29.89,West,261,3.7,4.6,77,0.00,CLR,,0.00,WeatherDisplay:10.37,2013-01-01 07:23:00,
2013-01-01 02:28:00,36.5,30.0,29.89,South,173,5.2,8.1,77,0.00,CLR,,0.00,WeatherDisplay:10.37,2013-01-01 07:28:00,
2013-01-01 02:33:00,36.6,30.1,29.89,WSW,237,6.3,8.1,77,0.00,CLR,,0.00,WeatherDisplay:10.37,2013-01-01 07:33:00,
2013-01-01 02:38:00,36.8,30.3,29.90,West,261,4.7,6.9,77,0.00,CLR,,0.00,WeatherDisplay:10.37,2013-01-01 07:38:00,
2013-01-01 02:43:00,36.8,30.3,29.90,WSW,242,5.1,6.9,77,0.00,CLR,,0.00,WeatherDisplay:10.37,2013-01-01 07:43:00,
2013-01-01 02:48:00,36.8,30.3,29.90,West,263,3.8,6.0,77,0.00,CLR,,0.00,WeatherDisplay:10.37,2013-01-01 07:48:00,
2013-01-01 02:53:00,36.9,30.0,29.90,SW,233,3.5,5.8,76,0.00,CLR,,0.00,WeatherDisplay:10.37,2013-01-01 07:53:00,
2013-01-01 02:58:00,36.9,30.4,29.91,SW,219,2.9,4.6,77,0.00,CLR,,0.00,WeatherDisplay:10.37,2013-01-01 07:58:00,
2013-01-01 03:03:00,37.0,30.1,29.90,SW,234,4.3,6.9,76,0.00,CLR,,0.00,WeatherDisplay:10.37,2013-01-01 08:03:00,
2013-01-01 03:08:00,37.0,30.5,29.90,SSW,195,2.0,3.5,77,0.00,CLR,,0.00,WeatherDisplay:10.37,2013-01-01 08:08:00,
2013-01-01 03:13:00,36.8,29.9,29.90,WSW,253,3.7,6.0,76,0.00,CLR,,0.00,WeatherDisplay:10.37,2013-01-01 08:13:00,
2013-01-01 03:18:00,36.9,30.4,29.90,West,277,3.0,7.0,77,0.01,RA,,0.01,WeatherDisplay:10.37,2013-01-01 08:18:00,
2013-01-01 03:23:00,36.9,30.4,29.90,West,271,3.5,6.9,77,0.01,RA,,0.01,WeatherDisplay:10.37,2013-01-01 08:23:00,
2013-01-01 03:28:00,37.0,30.1,29.91,WNW,298,3.7,4.6,76,0.01,,,0.01,WeatherDisplay:10.37,2013-01-01 08:28:00,
2013-01-01 03:33:00,37.1,30.2,29.91,WSW,238,8.0,11.5,76,0.01,CLR,,0.01,WeatherDisplay:10.37,2013-01-01 08:33:00,
2013-01-01 03:38:00,37.1,30.2,29.91,WSW,244,2.7,8.1,76,0.01,CLR,,0.01,WeatherDisplay:10.37,2013-01-01 08:38:00,
2013-01-01 03:43:00,37.1,30.2,29.90,West,265,4.6,4.6,76,0.01,CLR,,0.01,WeatherDisplay:10.37,2013-01-01 08:43:00,
2013-01-01 03:48:00,37.0,30.1,29.90,SW,229,4.2,8.1,76,0.01,CLR,,0.01,WeatherDisplay:10.37,2013-01-01 08:48:00,
2013-01-01 03:53:00,37.2,30.3,29.90,WSW,248,7.0,9.2,76,0.01,CLR,,0.01,WeatherDisplay:10.37,2013-01-01 08:53:00,
2013-01-01 03:58:00,37.3,30.4,29.90,West,259,3.4,6.9,76,0.01,CLR,,0.01,WeatherDisplay:10.37,2013-01-01 08:58:00,
2013-01-01 04:03:00,37.3,30.1,29.91,West,264,5.6,9.0,75,0.01,CLR,,0.01,WeatherDisplay:10.37,2013-01-01 09:03:00,
2013-01-01 04:08:00,37.3,30.4,29.91,WSW,242,4.2,8.1,76,0.01,CLR,,0.01,WeatherDisplay:10.37,2013-01-01 09:08:00,
2013-01-01 04:13:00,37.2,30.3,29.90,WSW,238,5.2,6.9,76,0.01,CLR,,0.01,WeatherDisplay:10.37,2013-01-01 09:13:00,
2013-01-01 04:18:00,37.1,30.2,29.90,West,267,3.6,6.0,76,0.00,CLR,,0.01,WeatherDisplay:10.37,2013-01-01 09:18:00,
2013-01-01 04:23:00,37.1,30.2,29.90,SW,231,6.4,11.5,76,0.00,CLR,,0.01,WeatherDisplay:10.37,2013-01-01 09:23:00,
2013-01-01 04:28:00,37.2,30.3,29.90,WSW,240,7.4,10.4,76,0.00,CLR,,0.01,WeatherDisplay:10.37,2013-01-01 09:28:00,
2013-01-01 04:33:00,37.1,30.2,29.89,WSW,246,5.7,11.5,76,0.00,CLR,,0.01,WeatherDisplay:10.37,2013-01-01 09:33:00,
2013-01-01 04:38:00,37.0,30.1,29.89,West,273,2.1,4.6,76,0.00,CLR,,0.01,WeatherDisplay:10.37,2013-01-01 09:38:00,
2013-01-01 04:43:00,37.0,30.1,29.89,West,259,5.7,6.9,76,0.00,CLR,,0.01,WeatherDisplay:10.37,2013-01-01 09:43:00,
2013-01-01 04:48:00,37.0,30.1,29.88,South,176,2.2,4.6,76,0.00,CLR,,0.01,WeatherDisplay:10.37,2013-01-01 09:48:00,
2013-01-01 04:53:00,36.9,30.0,29.89,WSW,251,3.5,6.9,76,0.00,CLR,,0.01,WeatherDisplay:10.37,2013-01-01 09:53:00,
2013-01-01 04:58:00,36.9,30.0,29.89,SW,235,5.4,8.1,76,0.00,CLR,,0.01,WeatherDisplay:10.37,2013-01-01 09:58:00,
2013-01-01 05:03:00,36.9,30.0,29.88,SW,234,3.7,8.1,76,0.00,CLR,,0.01,WeatherDisplay:10.37,2013-01-01 10:03:00,
2013-01-01 05:08:00,36.9,30.0,29.88,SW,233,3.2,4.6,76,0.00,CLR,,0.01,WeatherDisplay:10.37,2013-01-01 10:08:00,
2013-01-01 05:13:00,36.8,30.3,29.88,West,268,2.6,5.8,77,0.00,CLR,,0.01,WeatherDisplay:10.37,2013-01-01 10:13:00,
2013-01-01 05:18:00,36.7,30.2,29.88,SW,234,4.2,4.6,77,0.00,CLR,,0.01,WeatherDisplay:10.37,2013-01-01 10:18:00,
2013-01-01 05:23:00,36.6,30.1,29.88,WSW,254,3.9,6.9,77,0.00,CLR,,0.01,WeatherDisplay:10.37,2013-01-01 10:23:00,
2013-01-01 05:28:00,36.6,30.1,29.88,West,267,5.2,6.0,77,0.00,CLR,,0.01,WeatherDisplay:10.37,2013-01-01 10:28:00,
2013-01-01 05:33:00,36.6,30.1,29.88,SW,233,4.2,6.9,77,0.00,CLR,,0.01,WeatherDisplay:10.37,2013-01-01 10:33:00,
2013-01-01 05:38:00,36.5,30.0,29.88,SW,230,3.9,5.8,77,0.00,CLR,,0.01,WeatherDisplay:10.37,2013-01-01 10:38:00,
2013-01-01 05:43:00,36.5,30.0,29.88,WSW,248,6.1,10.4,77,0.00,CLR,,0.01,WeatherDisplay:10.37,2013-01-01 10:43:00,
2013-01-01 05:49:00,36.5,30.0,29.88,West,261,5.1,8.1,77,0.00,CLR,,0.01,WeatherDisplay:10.37,2013-01-01 10:49:00,
2013-01-01 05:54:00,36.4,29.9,29.88,WSW,252,4.3,6.9,77,0.00,CLR,,0.01,WeatherDisplay:10.37,2013-01-01 10:54:00,
2013-01-01 05:59:00,36.3,29.8,29.89,West,270,3.4,5.8,77,0.00,CLR,,0.01,WeatherDisplay:10.37,2013-01-01 10:59:00,
2013-01-01 06:04:00,36.2,29.7,29.89,WSW,246,3.3,5.8,77,0.00,CLR,,0.01,WeatherDisplay:10.37,2013-01-01 11:04:00,
2013-01-01 06:09:00,36.1,29.9,29.89,WSW,243,4.6,8.1,78,0.00,CLR,,0.01,WeatherDisplay:10.37,2013-01-01 11:09:00,
2013-01-01 06:14:00,36.2,30.0,29.90,SSW,206,3.5,9.2,78,0.00,CLR,,0.01,WeatherDisplay:10.37,2013-01-01 11:14:00,
2013-01-01 06:19:00,36.3,30.1,29.90,SW,226,4.7,11.5,78,0.00,CLR,,0.01,WeatherDisplay:10.37,2013-01-01 11:19:00,
2013-01-01 06:24:00,36.2,30.0,29.90,West,272,4.1,6.9,78,0.00,CLR,,0.01,WeatherDisplay:10.37,2013-01-01 11:24:00,
2013-01-01 06:29:00,36.4,29.9,29.90,WSW,250,4.4,10.4,77,0.00,CLR,,0.01,WeatherDisplay:10.37,2013-01-01 11:29:00,
2013-01-01 06:34:00,36.5,30.0,29.90,West,263,6.4,10.4,77,0.00,CLR,,0.01,WeatherDisplay:10.37,2013-01-01 11:34:00,
2013-01-01 06:39:00,36.6,30.1,29.90,WSW,254,6.9,11.5,77,0.00,CLR,,0.01,WeatherDisplay:10.37,2013-01-01 11:39:00,
2013-01-01 06:44:00,36.7,30.2,29.90,West,263,3.9,5.8,77,0.00,CLR,,0.01,WeatherDisplay:10.37,2013-01-01 11:44:00,
2013-01-01 06:49:00,36.7,29.8,29.90,West,270,5.1,6.9,76,0.00,CLR,,0.01,WeatherDisplay:10.37,2013-01-01 11:49:00,
2013-01-01 06:54:00,36.6,30.1,29.90,SW,234,6.1,6.1,77,0.00,CLR,,0.01,WeatherDisplay:10.37,2013-01-01 11:54:00,
2013-01-01 06:59:00,36.5,30.0,29.89,WSW,245,1.9,3.5,77,0.00,CLR,,0.01,WeatherDisplay:10.37,2013-01-01 11:59:00,
2013-01-01 07:04:00,36.4,29.9,29.89,West,273,5.3,8.1,77,0.00,CLR,,0.01,WeatherDisplay:10.37,2013-01-01 12:04:00,
2013-01-01 07:09:00,36.4,29.9,29.90,WSW,252,6.0,10.4,77,0.00,CLR,,0.01,WeatherDisplay:10.37,2013-01-01 12:09:00,
2013-01-01 07:14:00,36.4,29.9,29.90,WSW,250,5.1,8.1,77,0.00,CLR,,0.01,WeatherDisplay:10.37,2013-01-01 12:14:00,
2013-01-01 07:19:00,36.3,29.8,29.90,SW,218,4.0,5.8,77,0.00,CLR,,0.01,WeatherDisplay:10.37,2013-01-01 12:19:00,
2013-01-01 07:24:00,36.4,29.9,29.90,West,264,6.9,6.9,77,0.00,CLR,,0.01,WeatherDisplay:10.37,2013-01-01 12:24:00,
2013-01-01 07:29:00,36.4,29.9,29.90,West,267,5.3,8.1,77,0.00,CLR,,0.01,WeatherDisplay:10.37,2013-01-01 12:29:00,
2013-01-01 07:34:00,36.4,29.9,29.90,WSW,247,6.3,9.2,77,0.00,CLR,,0.01,WeatherDisplay:10.37,2013-01-01 12:34:00,
2013-01-01 07:39:00,36.5,30.0,29.90,West,264,5.7,14.0,77,0.00,CLR,,0.01,WeatherDisplay:10.37,2013-01-01 12:39:00,
2013-01-01 07:44:00,36.5,30.0,29.90,WSW,242,5.5,9.2,77,0.00,CLR,,0.01,WeatherDisplay:10.37,2013-01-01 12:44:00,
2013-01-01 07:49:00,36.6,30.1,29.90,WSW,243,6.4,11.5,77,0.00,CLR,,0.01,WeatherDisplay:10.37,2013-01-01 12:49:00,
2013-01-01 07:54:00,36.6,30.1,29.90,NW,315,3.5,5.8,77,0.00,CLR,,0.01,WeatherDisplay:10.37,2013-01-01 12:54:00,
2013-01-01 07:59:00,36.6,29.7,29.90,WSW,243,5.1,8.1,76,0.00,CLR,,0.01,WeatherDisplay:10.37,2013-01-01 12:59:00,
2013-01-01 08:04:00,36.7,29.8,29.90,West,281,4.6,5.8,76,0.00,CLR,,0.01,WeatherDisplay:10.37,2013-01-01 13:04:00,
2013-01-01 08:09:00,36.7,29.8,29.90,West,267,4.4,8.1,76,0.00,CLR,,0.01,WeatherDisplay:10.37,2013-01-01 13:09:00,
2013-01-01 08:14:00,36.7,29.8,29.90,WSW,244,5.7,11.5,76,0.00,CLR,,0.01,WeatherDisplay:10.37,2013-01-01 13:14:00,
2013-01-01 08:19:00,36.7,29.8,29.91,West,261,6.4,8.1,76,0.00,CLR,,0.01,WeatherDisplay:10.37,2013-01-01 13:19:00,
2013-01-01 08:24:00,36.7,29.8,29.90,WSW,244,4.1,6.9,76,0.00,CLR,,0.01,WeatherDisplay:10.37,2013-01-01 13:24:00,
2013-01-01 08:29:00,36.6,29.7,29.90,West,272,5.6,9.2,76,0.00,CLR,,0.01,WeatherDisplay:10.37,2013-01-01 13:29:00,
2013-01-01 08:34:00,36.7,29.8,29.90,SW,224,5.1,6.9,76,0.00,CLR,,0.01,WeatherDisplay:10.37,2013-01-01 13:34:00,
2013-01-01 08:39:00,36.6,29.7,29.90,West,271,5.5,8.0,76,0.00,CLR,,0.01,WeatherDisplay:10.37,2013-01-01 13:39:00,
2013-01-01 08:44:00,36.6,30.1,29.90,West,263,4.2,10.4,77,0.00,CLR,,0.01,WeatherDisplay:10.37,2013-01-01 13:44:00,
2013-01-01 08:49:00,36.6,30.1,29.90,WSW,250,4.4,6.9,77,0.00,CLR,,0.01,WeatherDisplay:10.37,2013-01-01 13:49:00,
2013-01-01 08:54:00,36.6,29.7,29.90,West,271,5.9,10.4,76,0.00,CLR,,0.01,WeatherDisplay:10.37,2013-01-01 13:54:00,
2013-01-01 08:59:00,36.7,29.8,29.91,WSW,254,5.9,8.1,76,0.00,CLR,,0.01,WeatherDisplay:10.37,2013-01-01 13:59:00,
2013-01-01 09:04:00,36.6,29.7,29.91,SW,222,5.4,9.2,76,0.00,CLR,,0.01,WeatherDisplay:10.37,2013-01-01 14:04:00,
2013-01-01 09:09:00,36.6,30.1,29.91,WSW,238,4.8,5.8,77,0.00,CLR,,0.01,WeatherDisplay:10.37,2013-01-01 14:09:00,
2013-01-01 09:14:00,36.6,29.7,29.92,West,278,6.3,10.4,76,0.00,CLR,,0.01,WeatherDisplay:10.37,2013-01-01 14:14:00,
2013-01-01 09:19:00,36.6,29.7,29.91,West,270,5.3,9.2,76,0.00,CLR,,0.01,WeatherDisplay:10.37,2013-01-01 14:19:00,
2013-01-01 09:24:00,36.7,29.8,29.91,West,273,3.3,5.0,76,0.00,CLR,,0.01,WeatherDisplay:10.37,2013-01-01 14:24:00,
2013-01-01 09:29:00,36.8,29.6,29.91,West,272,5.0,8.1,75,0.00,CLR,,0.01,WeatherDisplay:10.37,2013-01-01 14:29:00,
2013-01-01 09:34:00,36.8,29.9,29.91,WSW,242,5.4,10.4,76,0.00,CLR,,0.01,WeatherDisplay:10.37,2013-01-01 14:34:00,
2013-01-01 09:39:00,36.8,29.6,29.91,SW,229,4.8,6.9,75,0.00,CLR,,0.01,WeatherDisplay:10.37,2013-01-01 14:39:00,
2013-01-01 09:44:00,36.8,29.6,29.91,WSW,250,6.8,9.2,75,0.00,CLR,,0.01,WeatherDisplay:10.37,2013-01-01 14:44:00,
2013-01-01 09:49:00,36.8,29.9,29.91,West,259,4.7,5.8,76,0.00,CLR,,0.01,WeatherDisplay:10.37,2013-01-01 14:49:00,
2013-01-01 09:54:00,36.8,29.6,29.91,West,261,5.8,10.4,75,0.00,CLR,,0.01,WeatherDisplay:10.37,2013-01-01 14:54:00,
2013-01-01 09:59:00,36.9,29.7,29.91,WNW,287,7.8,10.4,75,0.00,CLR,,0.01,WeatherDisplay:10.37,2013-01-01 14:59:00,
2013-01-01 10:04:00,36.9,29.7,29.91,West,265,5.8,8.1,75,0.00,CLR,,0.01,WeatherDisplay:10.37,2013-01-01 15:04:00,
2013-01-01 10:09:00,37.0,29.8,29.91,West,264,5.4,8.1,75,0.00,CLR,,0.01,WeatherDisplay:10.37,2013-01-01 15:09:00,
2013-01-01 10:14:00,37.1,29.9,29.91,WSW,243,10.1,12.7,75,0.00,CLR,,0.01,WeatherDisplay:10.37,2013-01-01 15:14:00,
2013-01-01 10:19:00,37.1,29.9,29.91,WSW,257,8.7,11.5,75,0.00,CLR,,0.01,WeatherDisplay:10.37,2013-01-01 15:19:00,
2013-01-01 10:24:00,37.2,30.0,29.91,SSW,213,8.0,12.7,75,0.01,RA,,0.02,WeatherDisplay:10.37,2013-01-01 15:24:00,
2013-01-01 10:29:00,37.2,30.3,29.90,West,271,6.1,8.1,76,0.01,RA,,0.02,WeatherDisplay:10.37,2013-01-01 15:29:00,
2013-01-01 10:34:00,37.3,30.4,29.91,WSW,255,7.2,11.5,76,0.01,,,0.02,WeatherDisplay:10.37,2013-01-01 15:34:00,
2013-01-01 10:39:00,37.3,30.1,29.91,WSW,248,4.0,7.0,75,0.01,CLR,,0.02,WeatherDisplay:10.37,2013-01-01 15:39:00,
2013-01-01 10:44:00,37.3,30.1,29.91,SW,234,8.3,10.4,75,0.01,CLR,,0.02,WeatherDisplay:10.37,2013-01-01 15:44:00,
2013-01-01 10:49:00,37.3,30.1,29.90,WSW,238,8.7,10.4,75,0.01,CLR,,0.02,WeatherDisplay:10.37,2013-01-01 15:49:00,
2013-01-01 10:54:00,37.3,30.1,29.90,West,259,7.2,12.7,75,0.01,CLR,,0.02,WeatherDisplay:10.37,2013-01-01 15:54:00,
2013-01-01 10:59:00,37.4,30.2,29.90,WSW,244,6.6,12.7,75,0.01,CLR,,0.02,WeatherDisplay:10.37,2013-01-01 15:59:00,
2013-01-01 11:04:00,37.4,30.2,29.90,West,263,11.1,15.0,75,0.01,CLR,,0.02,WeatherDisplay:10.37,2013-01-01 16:04:00,
2013-01-01 11:09:00,37.4,30.2,29.90,WSW,249,5.1,9.2,75,0.01,CLR,,0.02,WeatherDisplay:10.37,2013-01-01 16:09:00,
2013-01-01 11:14:00,37.4,30.2,29.90,WNW,284,9.7,13.8,75,0.01,CLR,,0.02,WeatherDisplay:10.37,2013-01-01 16:14:00,
2013-01-01 11:19:00,37.5,30.3,29.89,WSW,257,8.1,8.1,75,0.01,CLR,,0.02,WeatherDisplay:10.37,2013-01-01 16:19:00,
2013-01-01 11:24:00,37.5,30.0,29.89,WSW,240,6.6,11.5,74,0.00,CLR,,0.02,WeatherDisplay:10.37,2013-01-01 16:24:00,
2013-01-01 11:29:00,37.5,30.3,29.88,WSW,244,7.7,11.5,75,0.00,CLR,,0.02,WeatherDisplay:10.37,2013-01-01 16:29:00,
2013-01-01 11:34:00,37.5,30.0,29.88,WSW,252,10.3,13.8,74,0.00,CLR,,0.02,WeatherDisplay:10.37,2013-01-01 16:34:00,
2013-01-01 11:39:00,37.5,30.0,29.88,West,264,10.3,12.7,74,0.00,CLR,,0.02,WeatherDisplay:10.37,2013-01-01 16:39:00,
2013-01-01 11:44:00,37.5,30.0,29.88,WSW,251,7.0,11.5,74,0.00,CLR,,0.02,WeatherDisplay:10.37,2013-01-01 16:44:00,
2013-01-01 11:49:00,37.4,30.2,29.89,WSW,254,10.5,13.8,75,0.00,CLR,,0.02,WeatherDisplay:10.37,2013-01-01 16:49:00,
2013-01-01 11:54:00,37.3,29.8,29.88,West,267,6.9,11.5,74,0.00,CLR,,0.02,WeatherDisplay:10.37,2013-01-01 16:54:00,
2013-01-01 11:59:00,37.3,30.1,29.87,WSW,247,5.8,8.1,75,0.00,CLR,,0.02,WeatherDisplay:10.37,2013-01-01 16:59:00,
2013-01-01 12:04:00,37.2,30.0,29.87,WSW,254,7.3,10.4,75,0.00,CLR,,0.02,WeatherDisplay:10.37,2013-01-01 17:04:00,
2013-01-01 12:09:00,37.2,30.0,29.87,SW,233,3.4,4.6,75,0.00,CLR,,0.02,WeatherDisplay:10.37,2013-01-01 17:09:00,
2013-01-01 12:14:00,37.1,29.9,29.88,WNW,283,7.1,8.1,75,0.00,CLR,,0.02,WeatherDisplay:10.37,2013-01-01 17:14:00,
2013-01-01 12:19:00,37.1,29.9,29.87,West,274,6.6,9.2,75,0.00,CLR,,0.02,WeatherDisplay:10.37,2013-01-01 17:19:00,
2013-01-01 12:24:00,37.1,29.9,29.86,West,269,6.5,10.4,75,0.00,CLR,,0.02,WeatherDisplay:10.37,2013-01-01 17:24:00,
2013-01-01 12:29:00,37.0,29.8,29.87,West,278,7.8,9.2,75,0.00,CLR,,0.02,WeatherDisplay:10.37,2013-01-01 17:29:00,
2013-01-01 12:34:00,37.0,29.8,29.87,WSW,250,7.3,11.5,75,0.00,CLR,,0.02,WeatherDisplay:10.37,2013-01-01 17:34:00,
2013-01-01 12:40:00,37.0,29.8,29.87,WSW,258,9.1,11.5,75,0.00,CLR,,0.02,WeatherDisplay:10.37,2013-01-01 17:40:00,
2013-01-01 12:45:00,36.9,29.7,29.87,NW,325,7.4,9.2,75,0.00,CLR,,0.02,WeatherDisplay:10.37,2013-01-01 17:45:00,
2013-01-01 12:50:00,36.5,30.3,29.88,WNW,299,6.7,11.5,78,0.00,CLR,,0.02,WeatherDisplay:10.37,2013-01-01 17:50:00,
2013-01-01 12:55:00,35.5,30.2,29.88,NNW,329,7.3,9.2,81,0.00,CLR,,0.02,WeatherDisplay:10.37,2013-01-01 17:55:00,
2013-01-01 13:00:00,34.9,29.7,29.87,NNW,333,8.7,10.4,81,0.00,CLR,,0.02,WeatherDisplay:10.37,2013-01-01 18:00:00,
2013-01-01 13:05:00,34.5,29.6,29.87,NNW,333,7.0,12.0,82,0.00,CLR,,0.02,WeatherDisplay:10.37,2013-01-01 18:05:00,
2013-01-01 13:10:00,34.1,29.8,29.87,NW,317,9.4,10.4,84,0.00,CLR,,0.02,WeatherDisplay:10.37,2013-01-01 18:10:00,
2013-01-01 13:15:00,33.7,29.7,29.87,WNW,296,3.0,8.0,85,0.00,CLR,,0.02,WeatherDisplay:10.37,2013-01-01 18:15:00,
2013-01-01 13:20:00,33.4,29.9,29.86,West,276,3.0,7.0,87,0.00,CLR,,0.02,WeatherDisplay:10.37,2013-01-01 18:20:00,
2013-01-01 13:25:00,33.3,29.8,29.86,WSW,248,1.4,3.5,87,0.00,CLR,,0.02,WeatherDisplay:10.37,2013-01-01 18:25:00,
2013-01-01 13:30:00,33.3,29.8,29.86,West,265,1.8,3.5,87,0.00,CLR,,0.02,WeatherDisplay:10.37,2013-01-01 18:30:00,
2013-01-01 13:35:00,33.5,30.0,29.86,West,259,1.6,3.5,87,0.00,CLR,,0.02,WeatherDisplay:10.37,2013-01-01 18:35:00,
2013-01-01 13:40:00,33.6,29.6,29.85,West,273,1.5,3.5,85,0.00,CLR,,0.02,WeatherDisplay:10.37,2013-01-01 18:40:00,
2013-01-01 13:45:00,33.8,29.5,29.85,NW,306,2.2,3.5,84,0.00,CLR,,0.02,WeatherDisplay:10.37,2013-01-01 18:45:00,
2013-01-01 13:50:00,34.0,29.7,29.85,NW,315,2.9,3.5,84,0.00,CLR,,0.02,WeatherDisplay:10.37,2013-01-01 18:50:00,
2013-01-01 13:55:00,34.1,29.2,29.85,NW,314,2.6,3.5,82,0.00,CLR,,0.02,WeatherDisplay:10.37,2013-01-01 18:55:00,
2013-01-01 14:00:00,34.4,29.2,29.84,NW,305,0.6,2.3,81,0.00,CLR,,0.02,WeatherDisplay:10.37,2013-01-01 19:00:00,
2013-01-01 14:05:00,34.5,29.0,29.85,WNW,296,3.3,3.5,80,0.00,CLR,,0.02,WeatherDisplay:10.37,2013-01-01 19:05:00,
2013-01-01 14:10:00,34.8,28.3,29.85,WNW,284,4.0,4.6,77,0.00,CLR,,0.02,WeatherDisplay:10.37,2013-01-01 19:10:00,
2013-01-01 14:15:00,35.0,28.2,29.86,West,280,6.3,8.1,76,0.00,CLR,,0.02,WeatherDisplay:10.37,2013-01-01 19:15:00,
2013-01-01 14:20:00,35.2,28.4,29.85,WNW,292,4.9,6.9,76,0.00,CLR,,0.02,WeatherDisplay:10.37,2013-01-01 19:20:00,
2013-01-01 14:25:00,35.3,28.2,29.86,West,279,5.5,8.1,75,0.00,CLR,,0.02,WeatherDisplay:10.37,2013-01-01 19:25:00,
2013-01-01 14:30:00,35.3,28.2,29.86,NW,325,4.0,6.0,75,0.00,CLR,,0.02,WeatherDisplay:10.37,2013-01-01 19:30:00,
2013-01-01 14:35:00,35.4,28.3,29.86,WNW,282,6.2,8.1,75,0.00,CLR,,0.02,WeatherDisplay:10.37,2013-01-01 19:35:00,
2013-01-01 14:40:00,35.5,28.0,29.85,WNW,292,4.6,6.9,74,0.00,CLR,,0.02,WeatherDisplay:10.37,2013-01-01 19:40:00,
2013-01-01 14:45:00,35.6,28.1,29.85,West,274,4.5,5.8,74,0.00,CLR,,0.02,WeatherDisplay:10.37,2013-01-01 19:45:00,
2013-01-01 14:50:00,35.6,28.1,29.85,West,278,3.1,3.5,74,0.00,CLR,,0.02,WeatherDisplay:10.37,2013-01-01 19:50:00,
2013-01-01 14:55:00,35.6,28.1,29.85,West,275,4.7,5.8,74,0.00,CLR,,0.02,WeatherDisplay:10.37,2013-01-01 19:55:00,
2013-01-01 15:00:00,35.6,28.1,29.85,West,274,2.9,3.5,74,0.00,CLR,,0.02,WeatherDisplay:10.37,2013-01-01 20:00:00,
2013-01-01 15:05:00,35.5,28.0,29.85,West,259,2.0,3.5,74,0.00,CLR,,0.02,WeatherDisplay:10.37,2013-01-01 20:05:00,
2013-01-01 15:10:00,35.4,27.6,29.85,West,265,5.1,6.9,73,0.00,CLR,,0.02,WeatherDisplay:10.37,2013-01-01 20:10:00,
2013-01-01 15:15:00,35.4,27.9,29.86,West,262,3.0,4.6,74,0.00,CLR,,0.02,WeatherDisplay:10.37,2013-01-01 20:15:00,
2013-01-01 15:20:00,35.3,28.2,29.85,West,278,4.4,5.8,75,0.00,CLR,,0.02,WeatherDisplay:10.37,2013-01-01 20:20:00,
2013-01-01 15:25:00,35.2,28.1,29.86,West,271,4.0,5.0,75,0.00,CLR,,0.02,WeatherDisplay:10.37,2013-01-01 20:25:00,
2013-01-01 15:30:00,35.2,28.1,29.87,West,259,3.8,5.8,75,0.00,CLR,,0.02,WeatherDisplay:10.37,2013-01-01 20:30:00,
2013-01-01 15:35:00,35.2,27.7,29.87,West,272,5.3,8.1,74,0.00,CLR,,0.02,WeatherDisplay:10.37,2013-01-01 20:35:00,
2013-01-01 15:40:00,35.2,28.1,29.87,WSW,237,3.5,4.6,75,0.00,CLR,,0.02,WeatherDisplay:10.37,2013-01-01 20:40:00,
2013-01-01 15:45:00,35.3,27.8,29.88,West,269,5.5,6.9,74,0.00,CLR,,0.02,WeatherDisplay:10.37,2013-01-01 20:45:00,
2013-01-01 15:50:00,35.2,28.1,29.89,WSW,254,4.5,8.0,75,0.00,CLR,,0.02,WeatherDisplay:10.37,2013-01-01 20:50:00,
2013-01-01 15:55:00,35.2,28.1,29.89,West,269,4.6,7.0,75,0.00,CLR,,0.02,WeatherDisplay:10.37,2013-01-01 20:55:00,
2013-01-01 16:00:00,35.3,27.8,29.89,WSW,257,2.9,4.6,74,0.00,CLR,,0.02,WeatherDisplay:10.37,2013-01-01 21:00:00,
2013-01-01 16:05:00,35.3,28.2,29.89,WNW,282,4.5,4.6,75,0.00,CLR,,0.02,WeatherDisplay:10.37,2013-01-01 21:05:00,
2013-01-01 16:10:00,35.2,28.1,29.89,WNW,290,3.6,5.8,75,0.00,CLR,,0.02,WeatherDisplay:10.37,2013-01-01 21:10:00,
2013-01-01 16:15:00,35.2,27.7,29.89,NNW,339,2.5,3.5,74,0.00,CLR,,0.02,WeatherDisplay:10.37,2013-01-01 21:15:00,
2013-01-01 16:20:00,35.1,27.0,29.89,North,350,6.9,8.1,72,0.00,CLR,,0.02,WeatherDisplay:10.37,2013-01-01 21:20:00,
2013-01-01 16:25:00,34.9,25.8,29.89,NNW,336,7.9,10.4,69,0.00,CLR,,0.02,WeatherDisplay:10.37,2013-01-01 21:25:00,
2013-01-01 16:30:00,34.6,25.5,29.89,North,360,8.1,11.5,69,0.00,CLR,,0.02,WeatherDisplay:10.37,2013-01-01 21:30:00,
2013-01-01 16:35:00,34.3,25.2,29.89,NNW,329,5.5,6.9,69,0.00,CLR,,0.02,WeatherDisplay:10.37,2013-01-01 21:35:00,
2013-01-01 16:40:00,34.0,25.2,29.89,NNW,328,3.0,3.5,70,0.00,CLR,,0.02,WeatherDisplay:10.37,2013-01-01 21:40:00,
2013-01-01 16:45:00,33.7,24.3,29.90,NW,304,4.2,4.6,68,0.00,CLR,,0.02,WeatherDisplay:10.37,2013-01-01 21:45:00,
2013-01-01 16:50:00,33.6,24.2,29.91,West,281,6.2,9.0,68,0.00,CLR,,0.02,WeatherDisplay:10.37,2013-01-01 21:50:00,
2013-01-01 16:55:00,33.4,24.0,29.92,NNW,331,6.3,10.4,68,0.00,CLR,,0.02,WeatherDisplay:10.37,2013-01-01 21:55:00,
2013-01-01 17:00:00,33.3,23.5,29.92,NW,319,4.0,5.8,67,0.00,CLR,,0.02,WeatherDisplay:10.37,2013-01-01 22:00:00,
2013-01-01 17:05:00,33.2,23.4,29.91,NW,307,5.2,9.2,67,0.00,CLR,,0.02,WeatherDisplay:10.37,2013-01-01 22:05:00,
2013-01-01 17:10:00,33.0,23.2,29.91,NNW,327,3.9,5.8,67,0.00,CLR,,0.02,WeatherDisplay:10.37,2013-01-01 22:10:00,
2013-01-01 17:15:00,32.8,23.0,29.92,NNW,333,8.9,13.8,67,0.00,CLR,,0.02,WeatherDisplay:10.37,2013-01-01 22:15:00,
2013-01-01 17:20:00,32.8,23.4,29.92,NW,305,6.3,9.0,68,0.00,CLR,,0.02,WeatherDisplay:10.37,2013-01-01 22:20:00,
2013-01-01 17:25:00,32.6,22.8,29.93,NW,306,5.0,5.8,67,0.00,CLR,,0.02,WeatherDisplay:10.37,2013-01-01 22:25:00,
2013-01-01 17:30:00,32.6,22.8,29.92,West,280,7.2,10.4,67,0.00,CLR,,0.02,WeatherDisplay:10.37,2013-01-01 22:30:00,
2013-01-01 17:35:00,32.6,23.2,29.92,NW,309,6.9,9.2,68,0.00,CLR,,0.02,WeatherDisplay:10.37,2013-01-01 22:35:00,
2013-01-01 17:40:00,32.5,22.8,29.92,NW,312,6.4,9.2,67,0.00,CLR,,0.02,WeatherDisplay:10.37,2013-01-01 22:40:00,
2013-01-01 17:45:00,32.4,22.7,29.91,NW,321,7.8,10.4,67,0.00,CLR,,0.02,WeatherDisplay:10.37,2013-01-01 22:45:00,
2013-01-01 17:50:00,32.2,22.1,29.92,NW,310,5.9,11.5,66,0.00,CLR,,0.02,WeatherDisplay:10.37,2013-01-01 22:50:00,
2013-01-01 17:55:00,32.0,21.6,29.92,NW,323,7.8,11.5,65,0.00,CLR,,0.02,WeatherDisplay:10.37,2013-01-01 22:55:00,
2013-01-01 18:00:00,31.9,21.1,29.92,NNW,336,9.4,11.5,64,0.00,CLR,,0.02,WeatherDisplay:10.37,2013-01-01 23:00:00,
2013-01-01 18:05:00,31.7,21.3,29.92,NW,316,8.3,10.0,65,0.00,CLR,,0.02,WeatherDisplay:10.37,2013-01-01 23:05:00,
2013-01-01 18:10:00,31.5,21.1,29.94,NNW,334,7.7,9.2,65,0.00,CLR,,0.02,WeatherDisplay:10.37,2013-01-01 23:10:00,
2013-01-01 18:15:00,31.5,20.7,29.94,WNW,299,7.0,10.4,64,0.00,CLR,,0.02,WeatherDisplay:10.37,2013-01-01 23:15:00,
2013-01-01 18:20:00,31.4,21.0,29.94,NW,312,6.6,9.2,65,0.00,CLR,,0.02,WeatherDisplay:10.37,2013-01-01 23:20:00,
2013-01-01 18:25:00,31.2,20.8,29.95,NW,321,6.2,6.9,65,0.00,CLR,,0.02,WeatherDisplay:10.37,2013-01-01 23:25:00,
2013-01-01 18:30:00,31.1,20.3,29.95,NW,315,5.2,9.2,64,0.00,CLR,,0.02,WeatherDisplay:10.37,2013-01-01 23:30:00,
2013-01-01 18:35:00,31.0,20.2,29.95,NNW,339,6.8,10.4,64,0.00,CLR,,0.02,WeatherDisplay:10.37,2013-01-01 23:35:00,
2013-01-01 18:40:00,31.0,19.5,29.95,NW,306,10.1,11.5,62,0.00,CLR,,0.02,WeatherDisplay:10.37,2013-01-01 23:40:00,
2013-01-01 18:45:00,31.0,19.1,29.95,WNW,285,9.2,12.7,61,0.00,CLR,,0.02,WeatherDisplay:10.37,2013-01-01 23:45:00,
2013-01-01 18:50:00,30.9,19.4,29.95,West,264,6.9,10.4,62,0.00,CLR,,0.02,WeatherDisplay:10.37,2013-01-01 23:50:00,
2013-01-01 18:55:00,30.8,18.9,29.96,WNW,302,6.3,8.1,61,0.00,CLR,,0.02,WeatherDisplay:10.37,2013-01-01 23:55:00,
2013-01-01 19:00:00,30.7,19.2,29.96,NW,308,8.3,10.4,62,0.00,CLR,,0.02,WeatherDisplay:10.37,2013-01-02 00:00:00,
2013-01-01 19:05:00,30.7,19.2,29.95,WNW,302,5.7,6.9,62,0.00,CLR,,0.02,WeatherDisplay:10.37,2013-01-02 00:05:00,
2013-01-01 19:10:00,30.5,19.4,29.96,NW,313,6.0,6.9,63,0.00,CLR,,0.02,WeatherDisplay:10.37,2013-01-02 00:10:00,
2013-01-01 19:15:00,30.4,19.3,29.96,WNW,292,4.2,6.9,63,0.00,CLR,,0.02,WeatherDisplay:10.37,2013-01-02 00:15:00,
2013-01-01 19:20:00,30.3,18.8,29.95,NW,314,5.3,8.1,62,0.00,CLR,,0.02,WeatherDisplay:10.37,2013-01-02 00:20:00,
2013-01-01 19:25:00,30.2,19.1,29.95,NW,312,5.1,6.9,63,0.00,CLR,,0.02,WeatherDisplay:10.37,2013-01-02 00:25:00,
2013-01-01 19:30:00,30.0,18.9,29.95,NW,310,5.1,6.9,63,0.00,CLR,,0.02,WeatherDisplay:10.37,2013-01-02 00:30:00,
2013-01-01 19:35:00,29.9,18.8,29.95,NW,317,3.8,4.6,63,0.00,CLR,,0.02,WeatherDisplay:10.37,2013-01-02 00:35:00,
2013-01-01 19:40:00,29.8,18.7,29.95,WNW,294,4.2,4.6,63,0.00,CLR,,0.02,WeatherDisplay:10.37,2013-01-02 00:40:00,
2013-01-01 19:45:00,29.8,18.4,29.95,NW,311,4.5,8.0,62,0.00,CLR,,0.02,WeatherDisplay:10.37,2013-01-02 00:45:00,
2013-01-01 19:50:00,29.9,18.5,29.97,NW,313,4.9,5.8,62,0.00,CLR,,0.02,WeatherDisplay:10.37,2013-01-02 00:50:00,
2013-01-01 19:55:00,29.8,18.4,29.96,WNW,282,5.1,6.9,62,0.00,CLR,,0.02,WeatherDisplay:10.37,2013-01-02 00:55:00,
2013-01-01 20:00:00,29.9,18.5,29.97,NW,321,6.1,8.1,62,0.00,CLR,,0.02,WeatherDisplay:10.37,2013-01-02 01:00:00,
2013-01-01 20:05:00,29.8,18.4,29.97,NW,311,5.3,9.2,62,0.00,CLR,,0.02,WeatherDisplay:10.37,2013-01-02 01:05:00,
2013-01-01 20:10:00,29.7,18.3,29.97,NNW,346,6.4,6.9,62,0.00,CLR,,0.02,WeatherDisplay:10.37,2013-01-02 01:10:00,
2013-01-01 20:15:00,29.6,17.8,29.96,NNW,340,6.6,10.4,61,0.00,CLR,,0.02,WeatherDisplay:10.37,2013-01-02 01:15:00,
2013-01-01 20:20:00,29.5,17.7,29.96,NW,324,8.0,10.0,61,0.00,CLR,,0.02,WeatherDisplay:10.37,2013-01-02 01:20:00,
2013-01-01 20:25:00,29.4,18.0,29.97,NW,325,7.7,9.2,62,0.00,CLR,,0.02,WeatherDisplay:10.37,2013-01-02 01:25:00,
2013-01-01 20:30:00,29.3,18.3,29.97,NW,325,5.6,11.5,63,0.00,CLR,,0.02,WeatherDisplay:10.37,2013-01-02 01:30:00,
2013-01-01 20:35:00,29.2,18.2,29.97,NW,321,8.4,10.4,63,0.00,CLR,,0.02,WeatherDisplay:10.37,2013-01-02 01:35:00,
2013-01-01 20:40:00,29.0,18.3,29.97,NNW,345,7.0,11.5,64,0.00,CLR,,0.02,WeatherDisplay:10.37,2013-01-02 01:40:00,
2013-01-01 20:45:00,28.7,18.4,29.97,NW,315,9.0,10.4,65,0.00,CLR,,0.02,WeatherDisplay:10.37,2013-01-02 01:45:00,
2013-01-01 20:50:00,28.6,18.7,29.97,NW,304,11.5,12.7,66,0.00,CLR,,0.02,WeatherDisplay:10.37,2013-01-02 01:50:00,
2013-01-01 20:55:00,28.3,18.4,29.97,NNW,347,8.1,12.0,66,0.00,CLR,,0.02,WeatherDisplay:10.37,2013-01-02 01:55:00,
2013-01-01 21:00:00,28.1,18.5,29.97,NW,316,8.4,9.2,67,0.00,CLR,,0.02,WeatherDisplay:10.37,2013-01-02 02:00:00,
2013-01-01 21:05:00,28.0,18.5,29.98,WNW,287,5.5,5.5,67,0.00,CLR,,0.02,WeatherDisplay:10.37,2013-01-02 02:05:00,
2013-01-01 21:10:00,27.8,18.6,29.99,NNW,334,4.8,9.2,68,0.00,CLR,,0.02,WeatherDisplay:10.37,2013-01-02 02:10:00,
2013-01-01 21:15:00,27.7,18.8,29.98,NNW,329,6.5,8.0,69,0.00,CLR,,0.02,WeatherDisplay:10.37,2013-01-02 02:15:00,
2013-01-01 21:20:00,27.5,18.7,29.98,NW,322,6.1,9.0,69,0.00,CLR,,0.02,WeatherDisplay:10.37,2013-01-02 02:20:00,
2013-01-01 21:25:00,27.3,18.5,29.98,NNW,340,6.3,9.2,69,0.00,CLR,,0.02,WeatherDisplay:10.37,2013-01-02 02:25:00,
2013-01-01 21:30:00,27.1,17.9,29.98,NNW,344,4.5,5.8,68,0.00,CLR,,0.02,WeatherDisplay:10.37,2013-01-02 02:30:00,
2013-01-01 21:36:00,27.0,18.2,29.99,NNW,340,5.4,6.0,69,0.00,CLR,,0.02,WeatherDisplay:10.37,2013-01-02 02:36:00,
2013-01-01 21:41:00,26.9,18.1,29.99,NNW,329,4.7,5.8,69,0.00,CLR,,0.02,WeatherDisplay:10.37,2013-01-02 02:41:00,
2013-01-01 21:46:00,26.8,18.0,29.99,NNW,331,4.3,8.1,69,0.00,CLR,,0.02,WeatherDisplay:10.37,2013-01-02 02:46:00,
2013-01-01 21:51:00,26.7,17.9,29.99,NW,325,5.9,5.9,69,0.00,CLR,,0.02,WeatherDisplay:10.37,2013-01-02 02:51:00,
2013-01-01 21:56:00,26.6,17.8,29.99,NW,320,6.3,6.3,69,0.00,CLR,,0.02,WeatherDisplay:10.37,2013-01-02 02:56:00,
2013-01-01 22:01:00,26.5,17.7,30.00,NW,317,5.6,8.1,69,0.00,CLR,,0.02,WeatherDisplay:10.37,2013-01-02 03:01:00,
2013-01-01 22:06:00,26.5,17.4,30.00,NNW,336,7.0,10.4,68,0.00,CLR,,0.02,WeatherDisplay:10.37,2013-01-02 03:06:00,
2013-01-01 22:11:00,26.4,17.3,30.00,NNW,340,6.7,10.4,68,0.00,CLR,,0.02,WeatherDisplay:10.37,2013-01-02 03:11:00,
2013-01-01 22:16:00,26.3,16.8,30.00,NNW,330,7.8,11.5,67,0.00,CLR,,0.02,WeatherDisplay:10.37,2013-01-02 03:16:00,
2013-01-01 22:21:00,26.2,16.7,30.00,North,5,6.4,10.4,67,0.00,CLR,,0.02,WeatherDisplay:10.37,2013-01-02 03:21:00,
2013-01-01 22:26:00,26.0,16.5,30.01,NW,319,5.6,6.0,67,0.00,CLR,,0.02,WeatherDisplay:10.37,2013-01-02 03:26:00,
2013-01-01 22:31:00,25.9,16.8,30.01,NNE,17,6.8,6.9,68,0.00,CLR,,0.02,WeatherDisplay:10.37,2013-01-02 03:31:00,
2013-01-01 22:36:00,25.7,16.6,30.01,North,5,6.3,9.2,68,0.00,CLR,,0.02,WeatherDisplay:10.37,2013-01-02 03:36:00,
2013-01-01 22:41:00,25.5,16.7,30.01,NW,325,4.0,4.6,69,0.00,CLR,,0.02,WeatherDisplay:10.37,2013-01-02 03:41:00,
2013-01-01 22:46:00,25.3,16.9,30.01,NNW,343,5.0,5.8,70,0.00,CLR,,0.02,WeatherDisplay:10.37,2013-01-02 03:46:00,
2013-01-01 22:51:00,25.2,16.5,30.01,NNW,344,5.7,8.1,69,0.00,CLR,,0.02,WeatherDisplay:10.37,2013-01-02 03:51:00,
2013-01-01 22:56:00,25.2,16.1,30.01,NNW,344,7.3,9.2,68,0.00,CLR,,0.02,WeatherDisplay:10.37,2013-01-02 03:56:00,
2013-01-01 23:01:00,25.2,16.1,30.01,NW,321,5.4,6.9,68,0.00,CLR,,0.02,WeatherDisplay:10.37,2013-01-02 04:01:00,
2013-01-01 23:06:00,25.2,15.8,30.01,NW,313,5.9,9.2,67,0.00,CLR,,0.02,WeatherDisplay:10.37,2013-01-02 04:06:00,
2013-01-01 23:11:00,25.3,15.9,30.01,NW,317,6.4,9.2,67,0.00,CLR,,0.02,WeatherDisplay:10.37,2013-01-02 04:11:00,
2013-01-01 23:16:00,25.3,15.9,30.01,NNW,327,6.0,10.4,67,0.00,CLR,,0.02,WeatherDisplay:10.37,2013-01-02 04:16:00,
2013-01-01 23:21:00,25.2,15.8,30.01,North,355,6.4,9.2,67,0.00,CLR,,0.02,WeatherDisplay:10.37,2013-01-02 04:21:00,
2013-01-01 23:26:00,25.2,15.8,30.01,NNW,333,5.9,10.4,67,0.00,CLR,,0.02,WeatherDisplay:10.37,2013-01-02 04:26:00,
2013-01-01 23:31:00,25.2,15.4,30.01,NW,325,5.4,10.4,66,0.00,CLR,,0.02,WeatherDisplay:10.37,2013-01-02 04:31:00,
2013-01-01 23:36:00,25.2,15.4,30.01,NW,308,5.7,7.0,66,0.00,CLR,,0.02,WeatherDisplay:10.37,2013-01-02 04:36:00,
2013-01-01 23:41:00,25.1,15.3,30.01,NW,315,5.3,8.1,66,0.00,CLR,,0.02,WeatherDisplay:10.37,2013-01-02 04:41:00,
2013-01-01 23:46:00,25.1,15.7,30.01,NW,323,5.7,5.8,67,0.00,CLR,,0.02,WeatherDisplay:10.37,2013-01-02 04:46:00,
2013-01-01 23:51:00,25.0,15.2,30.02,NW,318,5.8,9.2,66,0.00,CLR,,0.02,WeatherDisplay:10.37,2013-01-02 04:51:00,
2013-01-01 23:56:00,25.1,15.3,30.02,NW,315,6.0,6.9,66,0.00,CLR,,0.02,WeatherDisplay:10.37,2013-01-02 04:56:00,